sensor_id;sensor_type;location;lat;lon;timestamp;P1;durP1;ratioP1;P2;durP2;ratioP2
13485;SDS011;6815;59.336;17.998;2023-05-20T00:00:30;4.23;;;1.70;;
13485;SDS011;6815;59.336;17.998;2023-05-20T00:02:56;4.43;;;1.80;;
13485;SDS011;6815;59.336;17.998;2023-05-20T00:05:22;4.13;;;1.77;;
13485;SDS011;6815;59.336;17.998;2023-05-20T00:07:47;2.77;;;1.60;;
13485;SDS011;6815;59.336;17.998;2023-05-20T00:10:13;3.03;;;1.87;;
13485;SDS011;6815;59.336;17.998;2023-05-20T00:12:38;4.17;;;1.80;;
13485;SDS011;6815;59.336;17.998;2023-05-20T00:15:04;4.20;;;1.63;;
13485;SDS011;6815;59.336;17.998;2023-05-20T00:17:30;3.97;;;1.90;;
13485;SDS011;6815;59.336;17.998;2023-05-20T00:19:56;2.50;;;1.93;;
13485;SDS011;6815;59.336;17.998;2023-05-20T00:22:21;4.30;;;1.90;;
13485;SDS011;6815;59.336;17.998;2023-05-20T00:24:47;2.40;;;1.70;;
13485;SDS011;6815;59.336;17.998;2023-05-20T00:27:12;8.10;;;1.93;;
13485;SDS011;6815;59.336;17.998;2023-05-20T00:29:37;3.37;;;1.73;;
13485;SDS011;6815;59.336;17.998;2023-05-20T00:32:03;7.17;;;2.07;;
13485;SDS011;6815;59.336;17.998;2023-05-20T00:34:29;5.23;;;2.03;;
13485;SDS011;6815;59.336;17.998;2023-05-20T00:36:59;5.10;;;1.90;;
13485;SDS011;6815;59.336;17.998;2023-05-20T00:39:25;5.10;;;1.90;;
13485;SDS011;6815;59.336;17.998;2023-05-20T00:41:50;3.77;;;2.00;;
13485;SDS011;6815;59.336;17.998;2023-05-20T00:44:16;4.70;;;1.93;;
13485;SDS011;6815;59.336;17.998;2023-05-20T00:46:43;5.63;;;2.10;;
13485;SDS011;6815;59.336;17.998;2023-05-20T00:49:09;3.03;;;1.63;;
13485;SDS011;6815;59.336;17.998;2023-05-20T00:51:35;3.20;;;1.83;;
13485;SDS011;6815;59.336;17.998;2023-05-20T00:54:01;5.97;;;2.07;;
13485;SDS011;6815;59.336;17.998;2023-05-20T00:56:27;6.73;;;2.10;;
13485;SDS011;6815;59.336;17.998;2023-05-20T00:58:53;5.20;;;2.13;;
13485;SDS011;6815;59.336;17.998;2023-05-20T01:01:20;5.13;;;2.00;;
13485;SDS011;6815;59.336;17.998;2023-05-20T01:03:45;6.60;;;1.97;;
13485;SDS011;6815;59.336;17.998;2023-05-20T01:06:12;6.70;;;2.30;;
13485;SDS011;6815;59.336;17.998;2023-05-20T01:08:38;5.00;;;2.20;;
13485;SDS011;6815;59.336;17.998;2023-05-20T01:11:08;3.57;;;2.20;;
13485;SDS011;6815;59.336;17.998;2023-05-20T01:13:42;4.03;;;2.10;;
13485;SDS011;6815;59.336;17.998;2023-05-20T01:16:11;3.60;;;2.10;;
13485;SDS011;6815;59.336;17.998;2023-05-20T01:18:39;2.83;;;2.20;;
13485;SDS011;6815;59.336;17.998;2023-05-20T01:21:07;5.07;;;2.17;;
13485;SDS011;6815;59.336;17.998;2023-05-20T01:23:39;6.20;;;2.27;;
13485;SDS011;6815;59.336;17.998;2023-05-20T01:26:05;4.97;;;2.17;;
13485;SDS011;6815;59.336;17.998;2023-05-20T01:28:35;6.53;;;2.13;;
13485;SDS011;6815;59.336;17.998;2023-05-20T01:31:04;3.63;;;2.13;;
13485;SDS011;6815;59.336;17.998;2023-05-20T01:33:32;6.00;;;2.60;;
13485;SDS011;6815;59.336;17.998;2023-05-20T01:36:00;5.17;;;2.60;;
13485;SDS011;6815;59.336;17.998;2023-05-20T01:38:26;4.20;;;2.27;;
13485;SDS011;6815;59.336;17.998;2023-05-20T01:40:52;5.57;;;2.20;;
13485;SDS011;6815;59.336;17.998;2023-05-20T01:43:18;4.87;;;2.03;;
13485;SDS011;6815;59.336;17.998;2023-05-20T01:45:44;7.80;;;2.30;;
13485;SDS011;6815;59.336;17.998;2023-05-20T01:48:10;6.87;;;2.07;;
13485;SDS011;6815;59.336;17.998;2023-05-20T01:50:36;5.00;;;2.53;;
13485;SDS011;6815;59.336;17.998;2023-05-20T01:53:02;5.83;;;2.43;;
13485;SDS011;6815;59.336;17.998;2023-05-20T01:55:27;7.30;;;2.50;;
13485;SDS011;6815;59.336;17.998;2023-05-20T01:57:53;4.47;;;2.47;;
13485;SDS011;6815;59.336;17.998;2023-05-20T02:00:19;5.60;;;2.27;;
13485;SDS011;6815;59.336;17.998;2023-05-20T02:02:44;10.23;;;2.83;;
13485;SDS011;6815;59.336;17.998;2023-05-20T02:05:10;5.20;;;2.37;;
13485;SDS011;6815;59.336;17.998;2023-05-20T02:07:35;3.77;;;2.03;;
13485;SDS011;6815;59.336;17.998;2023-05-20T02:10:01;4.40;;;2.30;;
13485;SDS011;6815;59.336;17.998;2023-05-20T02:12:26;5.43;;;2.10;;
13485;SDS011;6815;59.336;17.998;2023-05-20T02:14:52;3.37;;;2.07;;
13485;SDS011;6815;59.336;17.998;2023-05-20T02:17:17;4.93;;;2.30;;
13485;SDS011;6815;59.336;17.998;2023-05-20T02:19:44;6.03;;;2.50;;
13485;SDS011;6815;59.336;17.998;2023-05-20T02:22:10;3.67;;;1.83;;
13485;SDS011;6815;59.336;17.998;2023-05-20T02:24:35;3.23;;;1.80;;
13485;SDS011;6815;59.336;17.998;2023-05-20T02:27:01;3.80;;;2.40;;
13485;SDS011;6815;59.336;17.998;2023-05-20T02:29:29;4.93;;;1.80;;
13485;SDS011;6815;59.336;17.998;2023-05-20T02:31:54;2.20;;;1.60;;
13485;SDS011;6815;59.336;17.998;2023-05-20T02:34:20;5.43;;;2.20;;
13485;SDS011;6815;59.336;17.998;2023-05-20T02:36:46;3.20;;;1.90;;
13485;SDS011;6815;59.336;17.998;2023-05-20T02:39:11;6.83;;;2.10;;
13485;SDS011;6815;59.336;17.998;2023-05-20T02:41:37;4.07;;;2.07;;
13485;SDS011;6815;59.336;17.998;2023-05-20T02:44:03;8.80;;;2.60;;
13485;SDS011;6815;59.336;17.998;2023-05-20T02:46:28;4.90;;;2.00;;
13485;SDS011;6815;59.336;17.998;2023-05-20T02:48:54;2.53;;;1.63;;
13485;SDS011;6815;59.336;17.998;2023-05-20T02:51:19;5.23;;;2.20;;
13485;SDS011;6815;59.336;17.998;2023-05-20T02:53:45;3.13;;;1.77;;
13485;SDS011;6815;59.336;17.998;2023-05-20T02:56:11;4.73;;;1.83;;
13485;SDS011;6815;59.336;17.998;2023-05-20T02:58:37;4.80;;;1.83;;
13485;SDS011;6815;59.336;17.998;2023-05-20T03:01:03;5.57;;;1.93;;
13485;SDS011;6815;59.336;17.998;2023-05-20T03:03:29;2.20;;;1.40;;
13485;SDS011;6815;59.336;17.998;2023-05-20T03:05:55;5.53;;;2.03;;
13485;SDS011;6815;59.336;17.998;2023-05-20T03:08:21;2.70;;;1.60;;
13485;SDS011;6815;59.336;17.998;2023-05-20T03:10:47;3.67;;;1.90;;
13485;SDS011;6815;59.336;17.998;2023-05-20T03:13:13;4.63;;;1.90;;
13485;SDS011;6815;59.336;17.998;2023-05-20T03:15:39;3.50;;;1.70;;
13485;SDS011;6815;59.336;17.998;2023-05-20T03:18:05;3.17;;;1.70;;
13485;SDS011;6815;59.336;17.998;2023-05-20T03:20:32;4.40;;;1.70;;
13485;SDS011;6815;59.336;17.998;2023-05-20T03:23:00;5.63;;;1.70;;
13485;SDS011;6815;59.336;17.998;2023-05-20T03:25:26;4.23;;;1.73;;
13485;SDS011;6815;59.336;17.998;2023-05-20T03:27:52;3.43;;;1.50;;
13485;SDS011;6815;59.336;17.998;2023-05-20T03:30:18;3.83;;;1.70;;
13485;SDS011;6815;59.336;17.998;2023-05-20T03:32:43;5.57;;;1.83;;
13485;SDS011;6815;59.336;17.998;2023-05-20T03:35:09;4.83;;;1.57;;
13485;SDS011;6815;59.336;17.998;2023-05-20T03:37:35;3.27;;;1.40;;
13485;SDS011;6815;59.336;17.998;2023-05-20T03:40:01;4.83;;;1.67;;
13485;SDS011;6815;59.336;17.998;2023-05-20T03:42:30;2.47;;;1.60;;
13485;SDS011;6815;59.336;17.998;2023-05-20T03:44:57;3.23;;;1.40;;
13485;SDS011;6815;59.336;17.998;2023-05-20T03:47:24;4.50;;;1.70;;
13485;SDS011;6815;59.336;17.998;2023-05-20T03:49:50;5.43;;;1.77;;
13485;SDS011;6815;59.336;17.998;2023-05-20T03:52:15;5.43;;;1.67;;
13485;SDS011;6815;59.336;17.998;2023-05-20T03:54:41;6.20;;;1.70;;
13485;SDS011;6815;59.336;17.998;2023-05-20T03:57:06;2.23;;;1.60;;
13485;SDS011;6815;59.336;17.998;2023-05-20T03:59:32;4.57;;;1.30;;
13485;SDS011;6815;59.336;17.998;2023-05-20T04:01:57;3.17;;;1.20;;
13485;SDS011;6815;59.336;17.998;2023-05-20T04:04:23;2.10;;;1.30;;
13485;SDS011;6815;59.336;17.998;2023-05-20T04:06:49;2.63;;;1.63;;
13485;SDS011;6815;59.336;17.998;2023-05-20T04:09:14;4.20;;;1.40;;
13485;SDS011;6815;59.336;17.998;2023-05-20T04:11:40;3.43;;;1.60;;
13485;SDS011;6815;59.336;17.998;2023-05-20T04:14:05;2.93;;;1.30;;
13485;SDS011;6815;59.336;17.998;2023-05-20T04:16:31;3.37;;;1.40;;
13485;SDS011;6815;59.336;17.998;2023-05-20T04:18:56;2.40;;;1.50;;
13485;SDS011;6815;59.336;17.998;2023-05-20T04:21:23;3.50;;;1.47;;
13485;SDS011;6815;59.336;17.998;2023-05-20T04:23:48;3.33;;;1.30;;
13485;SDS011;6815;59.336;17.998;2023-05-20T04:26:14;3.03;;;1.57;;
13485;SDS011;6815;59.336;17.998;2023-05-20T04:28:39;4.07;;;1.80;;
13485;SDS011;6815;59.336;17.998;2023-05-20T04:31:06;3.33;;;1.27;;
13485;SDS011;6815;59.336;17.998;2023-05-20T04:33:31;2.40;;;1.53;;
13485;SDS011;6815;59.336;17.998;2023-05-20T04:36:03;2.93;;;1.27;;
13485;SDS011;6815;59.336;17.998;2023-05-20T04:38:36;2.67;;;1.40;;
13485;SDS011;6815;59.336;17.998;2023-05-20T04:41:02;5.67;;;1.47;;
13485;SDS011;6815;59.336;17.998;2023-05-20T04:43:28;4.50;;;1.40;;
13485;SDS011;6815;59.336;17.998;2023-05-20T04:45:57;2.53;;;1.57;;
13485;SDS011;6815;59.336;17.998;2023-05-20T04:48:29;2.10;;;1.37;;
13485;SDS011;6815;59.336;17.998;2023-05-20T04:50:55;2.73;;;1.20;;
13485;SDS011;6815;59.336;17.998;2023-05-20T04:53:21;2.43;;;1.30;;
13485;SDS011;6815;59.336;17.998;2023-05-20T04:55:47;2.43;;;1.17;;
13485;SDS011;6815;59.336;17.998;2023-05-20T04:58:13;3.10;;;1.50;;
13485;SDS011;6815;59.336;17.998;2023-05-20T05:00:41;2.00;;;1.20;;
13485;SDS011;6815;59.336;17.998;2023-05-20T05:03:07;2.83;;;1.00;;
13485;SDS011;6815;59.336;17.998;2023-05-20T05:05:36;2.67;;;1.17;;
13485;SDS011;6815;59.336;17.998;2023-05-20T05:08:03;2.47;;;1.20;;
13485;SDS011;6815;59.336;17.998;2023-05-20T05:10:31;1.00;;;0.90;;
13485;SDS011;6815;59.336;17.998;2023-05-20T05:12:59;3.20;;;1.37;;
13485;SDS011;6815;59.336;17.998;2023-05-20T05:15:25;2.90;;;1.20;;
13485;SDS011;6815;59.336;17.998;2023-05-20T05:17:51;2.47;;;1.35;;
13485;SDS011;6815;59.336;17.998;2023-05-20T05:20:17;3.13;;;1.10;;
13485;SDS011;6815;59.336;17.998;2023-05-20T05:22:43;1.75;;;1.30;;
13485;SDS011;6815;59.336;17.998;2023-05-20T05:25:10;2.75;;;1.13;;
13485;SDS011;6815;59.336;17.998;2023-05-20T05:27:36;1.88;;;1.08;;
13485;SDS011;6815;59.336;17.998;2023-05-20T05:30:02;2.13;;;1.40;;
13485;SDS011;6815;59.336;17.998;2023-05-20T05:32:28;3.15;;;1.20;;
13485;SDS011;6815;59.336;17.998;2023-05-20T05:34:54;3.67;;;1.52;;
13485;SDS011;6815;59.336;17.998;2023-05-20T05:37:19;1.77;;;1.20;;
13485;SDS011;6815;59.336;17.998;2023-05-20T05:39:45;1.85;;;1.20;;
13485;SDS011;6815;59.336;17.998;2023-05-20T05:42:10;3.30;;;1.30;;
13485;SDS011;6815;59.336;17.998;2023-05-20T05:44:36;1.25;;;1.15;;
13485;SDS011;6815;59.336;17.998;2023-05-20T05:47:01;3.17;;;1.23;;
13485;SDS011;6815;59.336;17.998;2023-05-20T05:49:30;3.83;;;1.40;;
13485;SDS011;6815;59.336;17.998;2023-05-20T05:51:56;2.90;;;1.30;;
13485;SDS011;6815;59.336;17.998;2023-05-20T05:54:21;2.38;;;0.95;;
13485;SDS011;6815;59.336;17.998;2023-05-20T05:56:47;2.67;;;1.23;;
13485;SDS011;6815;59.336;17.998;2023-05-20T05:59:12;4.03;;;1.40;;
13485;SDS011;6815;59.336;17.998;2023-05-20T06:01:38;2.28;;;1.20;;
13485;SDS011;6815;59.336;17.998;2023-05-20T06:04:03;2.92;;;1.17;;
13485;SDS011;6815;59.336;17.998;2023-05-20T06:06:29;3.85;;;1.23;;
13485;SDS011;6815;59.336;17.998;2023-05-20T06:08:55;3.55;;;1.10;;
13485;SDS011;6815;59.336;17.998;2023-05-20T06:11:22;3.20;;;1.27;;
13485;SDS011;6815;59.336;17.998;2023-05-20T06:13:48;2.00;;;1.30;;
13485;SDS011;6815;59.336;17.998;2023-05-20T06:16:13;5.32;;;1.42;;
13485;SDS011;6815;59.336;17.998;2023-05-20T06:18:39;2.00;;;1.27;;
13485;SDS011;6815;59.336;17.998;2023-05-20T06:21:04;3.88;;;1.30;;
13485;SDS011;6815;59.336;17.998;2023-05-20T06:23:30;2.22;;;1.08;;
13485;SDS011;6815;59.336;17.998;2023-05-20T06:25:59;5.18;;;1.27;;
13485;SDS011;6815;59.336;17.998;2023-05-20T06:28:25;2.85;;;1.10;;
13485;SDS011;6815;59.336;17.998;2023-05-20T06:30:52;1.42;;;1.20;;
13485;SDS011;6815;59.336;17.998;2023-05-20T06:33:18;2.97;;;1.17;;
13485;SDS011;6815;59.336;17.998;2023-05-20T06:35:44;2.20;;;1.00;;
13485;SDS011;6815;59.336;17.998;2023-05-20T06:38:10;1.90;;;1.02;;
13485;SDS011;6815;59.336;17.998;2023-05-20T06:40:35;2.42;;;1.10;;
13485;SDS011;6815;59.336;17.998;2023-05-20T06:43:01;4.78;;;1.13;;
13485;SDS011;6815;59.336;17.998;2023-05-20T06:45:26;4.63;;;1.40;;
13485;SDS011;6815;59.336;17.998;2023-05-20T06:47:52;1.75;;;0.95;;
13485;SDS011;6815;59.336;17.998;2023-05-20T06:50:18;2.33;;;1.13;;
13485;SDS011;6815;59.336;17.998;2023-05-20T06:52:44;3.35;;;1.25;;
13485;SDS011;6815;59.336;17.998;2023-05-20T06:55:09;4.50;;;1.48;;
13485;SDS011;6815;59.336;17.998;2023-05-20T06:57:35;3.30;;;0.90;;
13485;SDS011;6815;59.336;17.998;2023-05-20T07:00:01;2.90;;;0.95;;
13485;SDS011;6815;59.336;17.998;2023-05-20T07:02:27;3.15;;;1.23;;
13485;SDS011;6815;59.336;17.998;2023-05-20T07:04:53;2.28;;;1.00;;
13485;SDS011;6815;59.336;17.998;2023-05-20T07:07:18;2.08;;;1.23;;
13485;SDS011;6815;59.336;17.998;2023-05-20T07:09:44;2.95;;;1.20;;
13485;SDS011;6815;59.336;17.998;2023-05-20T07:12:10;4.10;;;1.30;;
13485;SDS011;6815;59.336;17.998;2023-05-20T07:14:36;1.52;;;0.98;;
13485;SDS011;6815;59.336;17.998;2023-05-20T07:17:01;2.03;;;1.08;;
13485;SDS011;6815;59.336;17.998;2023-05-20T07:19:29;3.78;;;1.30;;
13485;SDS011;6815;59.336;17.998;2023-05-20T07:21:55;2.58;;;1.15;;
13485;SDS011;6815;59.336;17.998;2023-05-20T07:24:21;3.40;;;1.20;;
13485;SDS011;6815;59.336;17.998;2023-05-20T07:26:46;3.67;;;1.50;;
13485;SDS011;6815;59.336;17.998;2023-05-20T07:29:12;4.78;;;1.10;;
13485;SDS011;6815;59.336;17.998;2023-05-20T07:31:37;2.45;;;1.15;;
13485;SDS011;6815;59.336;17.998;2023-05-20T07:34:03;2.55;;;1.33;;
13485;SDS011;6815;59.336;17.998;2023-05-20T07:36:28;3.03;;;1.00;;
13485;SDS011;6815;59.336;17.998;2023-05-20T07:38:54;5.30;;;1.35;;
13485;SDS011;6815;59.336;17.998;2023-05-20T07:41:20;3.53;;;1.30;;
13485;SDS011;6815;59.336;17.998;2023-05-20T07:43:46;2.03;;;0.93;;
13485;SDS011;6815;59.336;17.998;2023-05-20T07:46:12;3.13;;;1.20;;
13485;SDS011;6815;59.336;17.998;2023-05-20T07:48:37;2.45;;;1.20;;
13485;SDS011;6815;59.336;17.998;2023-05-20T07:51:04;2.60;;;1.13;;
13485;SDS011;6815;59.336;17.998;2023-05-20T07:53:29;3.45;;;1.05;;
13485;SDS011;6815;59.336;17.998;2023-05-20T07:55:55;3.97;;;1.02;;
13485;SDS011;6815;59.336;17.998;2023-05-20T07:58:21;2.13;;;1.10;;
13485;SDS011;6815;59.336;17.998;2023-05-20T08:00:46;2.20;;;1.25;;
13485;SDS011;6815;59.336;17.998;2023-05-20T08:03:13;1.60;;;1.13;;
13485;SDS011;6815;59.336;17.998;2023-05-20T08:05:40;2.90;;;1.27;;
13485;SDS011;6815;59.336;17.998;2023-05-20T08:08:06;2.58;;;1.20;;
13485;SDS011;6815;59.336;17.998;2023-05-20T08:10:31;2.35;;;1.23;;
13485;SDS011;6815;59.336;17.998;2023-05-20T08:12:57;1.77;;;0.90;;
13485;SDS011;6815;59.336;17.998;2023-05-20T08:15:22;4.90;;;1.30;;
13485;SDS011;6815;59.336;17.998;2023-05-20T08:17:48;5.38;;;1.45;;
13485;SDS011;6815;59.336;17.998;2023-05-20T08:20:15;1.73;;;1.20;;
13485;SDS011;6815;59.336;17.998;2023-05-20T08:22:40;2.67;;;1.27;;
13485;SDS011;6815;59.336;17.998;2023-05-20T08:25:06;2.80;;;1.20;;
13485;SDS011;6815;59.336;17.998;2023-05-20T08:27:34;2.08;;;1.25;;
13485;SDS011;6815;59.336;17.998;2023-05-20T08:30:01;2.20;;;1.00;;
13485;SDS011;6815;59.336;17.998;2023-05-20T08:32:27;1.55;;;1.00;;
13485;SDS011;6815;59.336;17.998;2023-05-20T08:34:52;2.78;;;1.17;;
13485;SDS011;6815;59.336;17.998;2023-05-20T08:37:19;1.80;;;1.15;;
13485;SDS011;6815;59.336;17.998;2023-05-20T08:39:46;2.58;;;1.10;;
13485;SDS011;6815;59.336;17.998;2023-05-20T08:42:13;2.42;;;1.13;;
13485;SDS011;6815;59.336;17.998;2023-05-20T08:44:39;3.40;;;1.05;;
13485;SDS011;6815;59.336;17.998;2023-05-20T08:47:06;1.98;;;1.20;;
13485;SDS011;6815;59.336;17.998;2023-05-20T08:49:32;1.70;;;1.20;;
13485;SDS011;6815;59.336;17.998;2023-05-20T08:51:59;1.42;;;1.00;;
13485;SDS011;6815;59.336;17.998;2023-05-20T08:54:25;2.05;;;1.20;;
13485;SDS011;6815;59.336;17.998;2023-05-20T08:57:03;1.50;;;1.25;;
13485;SDS011;6815;59.336;17.998;2023-05-20T08:59:29;1.65;;;1.08;;
13485;SDS011;6815;59.336;17.998;2023-05-20T09:01:55;1.60;;;1.00;;
13485;SDS011;6815;59.336;17.998;2023-05-20T09:04:20;1.50;;;1.10;;
13485;SDS011;6815;59.336;17.998;2023-05-20T09:06:46;3.45;;;1.40;;
13485;SDS011;6815;59.336;17.998;2023-05-20T09:09:12;2.90;;;1.23;;
13485;SDS011;6815;59.336;17.998;2023-05-20T09:11:41;3.35;;;1.27;;
13485;SDS011;6815;59.336;17.998;2023-05-20T09:14:07;1.30;;;0.95;;
13485;SDS011;6815;59.336;17.998;2023-05-20T09:16:33;2.65;;;1.48;;
13485;SDS011;6815;59.336;17.998;2023-05-20T09:18:58;1.73;;;1.25;;
13485;SDS011;6815;59.336;17.998;2023-05-20T09:21:27;2.30;;;1.15;;
13485;SDS011;6815;59.336;17.998;2023-05-20T09:23:55;2.97;;;1.30;;
13485;SDS011;6815;59.336;17.998;2023-05-20T09:26:26;2.25;;;1.20;;
13485;SDS011;6815;59.336;17.998;2023-05-20T09:28:54;1.63;;;1.02;;
13485;SDS011;6815;59.336;17.998;2023-05-20T09:31:20;1.98;;;1.13;;
13485;SDS011;6815;59.336;17.998;2023-05-20T09:33:49;2.22;;;1.10;;
13485;SDS011;6815;59.336;17.998;2023-05-20T09:36:16;2.67;;;1.13;;
13485;SDS011;6815;59.336;17.998;2023-05-20T09:38:45;3.85;;;1.40;;
13485;SDS011;6815;59.336;17.998;2023-05-20T09:41:12;1.55;;;1.10;;
13485;SDS011;6815;59.336;17.998;2023-05-20T09:43:39;1.98;;;1.17;;
13485;SDS011;6815;59.336;17.998;2023-05-20T09:46:05;1.80;;;1.10;;
13485;SDS011;6815;59.336;17.998;2023-05-20T09:48:31;1.50;;;1.00;;
13485;SDS011;6815;59.336;17.998;2023-05-20T09:51:00;1.20;;;1.08;;
13485;SDS011;6815;59.336;17.998;2023-05-20T09:53:26;1.75;;;1.20;;
13485;SDS011;6815;59.336;17.998;2023-05-20T09:55:53;1.85;;;1.33;;
13485;SDS011;6815;59.336;17.998;2023-05-20T09:58:19;2.17;;;1.35;;
13485;SDS011;6815;59.336;17.998;2023-05-20T10:00:46;1.70;;;1.27;;
13485;SDS011;6815;59.336;17.998;2023-05-20T10:03:12;1.33;;;1.10;;
13485;SDS011;6815;59.336;17.998;2023-05-20T10:06:00;4.05;;;0.88;;
13485;SDS011;6815;59.336;17.998;2023-05-20T10:17:08;2.20;;;0.93;;
13485;SDS011;6815;59.336;17.998;2023-05-20T10:19:38;2.28;;;1.40;;
13485;SDS011;6815;59.336;17.998;2023-05-20T10:22:06;1.92;;;1.00;;
13485;SDS011;6815;59.336;17.998;2023-05-20T10:24:34;1.83;;;1.15;;
13485;SDS011;6815;59.336;17.998;2023-05-20T10:27:02;2.90;;;1.00;;
13485;SDS011;6815;59.336;17.998;2023-05-20T10:29:48;2.13;;;0.90;;
13485;SDS011;6815;59.336;17.998;2023-05-20T10:32:27;1.50;;;1.15;;
13485;SDS011;6815;59.336;17.998;2023-05-20T10:35:01;2.42;;;1.50;;
13485;SDS011;6815;59.336;17.998;2023-05-20T10:37:46;2.67;;;1.20;;
13485;SDS011;6815;59.336;17.998;2023-05-20T10:40:15;1.70;;;1.20;;
13485;SDS011;6815;59.336;17.998;2023-05-20T10:42:43;3.05;;;1.30;;
13485;SDS011;6815;59.336;17.998;2023-05-20T10:45:11;2.63;;;1.10;;
13485;SDS011;6815;59.336;17.998;2023-05-20T10:47:55;1.45;;;1.13;;
13485;SDS011;6815;59.336;17.998;2023-05-20T10:50:25;1.23;;;1.00;;
13485;SDS011;6815;59.336;17.998;2023-05-20T10:53:05;2.05;;;1.13;;
13485;SDS011;6815;59.336;17.998;2023-05-20T10:55:39;3.22;;;1.30;;
13485;SDS011;6815;59.336;17.998;2023-05-20T10:58:06;3.00;;;1.10;;
13485;SDS011;6815;59.336;17.998;2023-05-20T11:00:34;2.13;;;1.08;;
13485;SDS011;6815;59.336;17.998;2023-05-20T11:03:00;1.88;;;1.13;;
13485;SDS011;6815;59.336;17.998;2023-05-20T11:05:28;3.42;;;1.45;;
13485;SDS011;6815;59.336;17.998;2023-05-20T11:08:02;1.85;;;1.10;;
13485;SDS011;6815;59.336;17.998;2023-05-20T11:10:28;1.40;;;0.90;;
13485;SDS011;6815;59.336;17.998;2023-05-20T11:12:55;1.20;;;1.10;;
13485;SDS011;6815;59.336;17.998;2023-05-20T11:15:21;1.20;;;1.00;;
13485;SDS011;6815;59.336;17.998;2023-05-20T11:17:53;1.70;;;1.13;;
13485;SDS011;6815;59.336;17.998;2023-05-20T11:20:23;3.67;;;1.40;;
13485;SDS011;6815;59.336;17.998;2023-05-20T11:22:50;1.98;;;1.33;;
13485;SDS011;6815;59.336;17.998;2023-05-20T11:25:16;1.33;;;1.10;;
13485;SDS011;6815;59.336;17.998;2023-05-20T11:27:43;2.53;;;1.00;;
13485;SDS011;6815;59.336;17.998;2023-05-20T11:30:12;2.45;;;1.17;;
13485;SDS011;6815;59.336;17.998;2023-05-20T11:32:59;3.40;;;1.17;;
13485;SDS011;6815;59.336;17.998;2023-05-20T11:35:33;2.95;;;1.20;;
13485;SDS011;6815;59.336;17.998;2023-05-20T11:38:05;1.42;;;1.10;;
13485;SDS011;6815;59.336;17.998;2023-05-20T11:40:34;1.83;;;1.10;;
13485;SDS011;6815;59.336;17.998;2023-05-20T11:43:12;2.42;;;1.13;;
13485;SDS011;6815;59.336;17.998;2023-05-20T11:45:39;1.10;;;1.00;;
13485;SDS011;6815;59.336;17.998;2023-05-20T11:48:06;1.58;;;1.15;;
13485;SDS011;6815;59.336;17.998;2023-05-20T11:50:36;2.33;;;1.20;;
13485;SDS011;6815;59.336;17.998;2023-05-20T11:53:05;1.92;;;1.00;;
13485;SDS011;6815;59.336;17.998;2023-05-20T11:55:32;2.25;;;1.30;;
13485;SDS011;6815;59.336;17.998;2023-05-20T11:57:59;1.23;;;1.10;;
13485;SDS011;6815;59.336;17.998;2023-05-20T12:00:26;3.05;;;1.17;;
13485;SDS011;6815;59.336;17.998;2023-05-20T12:02:53;2.13;;;1.25;;
13485;SDS011;6815;59.336;17.998;2023-05-20T12:05:19;1.60;;;1.20;;
13485;SDS011;6815;59.336;17.998;2023-05-20T12:07:45;1.95;;;1.52;;
13485;SDS011;6815;59.336;17.998;2023-05-20T12:10:10;1.55;;;0.90;;
13485;SDS011;6815;59.336;17.998;2023-05-20T12:12:37;2.83;;;1.30;;
13485;SDS011;6815;59.336;17.998;2023-05-20T12:15:04;3.08;;;1.05;;
13485;SDS011;6815;59.336;17.998;2023-05-20T12:17:33;1.92;;;1.10;;
13485;SDS011;6815;59.336;17.998;2023-05-20T12:20:09;1.50;;;1.20;;
13485;SDS011;6815;59.336;17.998;2023-05-20T12:22:36;1.30;;;1.05;;
13485;SDS011;6815;59.336;17.998;2023-05-20T12:25:03;2.65;;;1.20;;
13485;SDS011;6815;59.336;17.998;2023-05-20T12:27:29;1.63;;;1.10;;
13485;SDS011;6815;59.336;17.998;2023-05-20T12:29:54;1.83;;;1.20;;
13485;SDS011;6815;59.336;17.998;2023-05-20T12:32:21;2.58;;;1.20;;
13485;SDS011;6815;59.336;17.998;2023-05-20T12:34:48;2.38;;;1.23;;
13485;SDS011;6815;59.336;17.998;2023-05-20T12:37:17;3.42;;;1.15;;
13485;SDS011;6815;59.336;17.998;2023-05-20T12:39:42;2.53;;;1.15;;
13485;SDS011;6815;59.336;17.998;2023-05-20T12:42:08;2.05;;;1.08;;
13485;SDS011;6815;59.336;17.998;2023-05-20T12:44:33;1.52;;;0.90;;
13485;SDS011;6815;59.336;17.998;2023-05-20T12:47:00;1.48;;;1.38;;
13485;SDS011;6815;59.336;17.998;2023-05-20T12:50:28;2.85;;;1.02;;
13485;SDS011;6815;59.336;17.998;2023-05-20T12:53:30;1.48;;;1.13;;
13485;SDS011;6815;59.336;17.998;2023-05-20T12:55:57;1.42;;;1.10;;
13485;SDS011;6815;59.336;17.998;2023-05-20T12:58:22;1.73;;;0.95;;
13485;SDS011;6815;59.336;17.998;2023-05-20T13:00:48;2.65;;;1.08;;
13485;SDS011;6815;59.336;17.998;2023-05-20T13:03:14;1.98;;;1.20;;
13485;SDS011;6815;59.336;17.998;2023-05-20T13:05:39;3.25;;;1.17;;
13485;SDS011;6815;59.336;17.998;2023-05-20T13:08:07;2.97;;;1.15;;
13485;SDS011;6815;59.336;17.998;2023-05-20T13:10:34;3.13;;;1.00;;
13485;SDS011;6815;59.336;17.998;2023-05-20T13:13:01;2.25;;;1.10;;
13485;SDS011;6815;59.336;17.998;2023-05-20T13:15:27;1.48;;;1.27;;
13485;SDS011;6815;59.336;17.998;2023-05-20T13:17:53;4.70;;;1.40;;
13485;SDS011;6815;59.336;17.998;2023-05-20T13:20:19;3.15;;;1.00;;
13485;SDS011;6815;59.336;17.998;2023-05-20T13:22:44;2.90;;;1.00;;
13485;SDS011;6815;59.336;17.998;2023-05-20T13:25:10;2.53;;;1.17;;
13485;SDS011;6815;59.336;17.998;2023-05-20T13:27:35;1.75;;;1.10;;
13485;SDS011;6815;59.336;17.998;2023-05-20T13:30:02;1.60;;;1.38;;
13485;SDS011;6815;59.336;17.998;2023-05-20T13:33:09;2.13;;;1.30;;
13485;SDS011;6815;59.336;17.998;2023-05-20T13:35:40;2.90;;;1.30;;
13485;SDS011;6815;59.336;17.998;2023-05-20T13:38:08;2.17;;;1.45;;
13485;SDS011;6815;59.336;17.998;2023-05-20T13:40:37;2.13;;;1.30;;
13485;SDS011;6815;59.336;17.998;2023-05-20T13:43:05;1.40;;;1.13;;
13485;SDS011;6815;59.336;17.998;2023-05-20T13:45:31;1.60;;;1.20;;
13485;SDS011;6815;59.336;17.998;2023-05-20T13:47:56;2.58;;;1.40;;
13485;SDS011;6815;59.336;17.998;2023-05-20T13:50:24;1.35;;;1.10;;
13485;SDS011;6815;59.336;17.998;2023-05-20T13:52:50;1.60;;;1.25;;
13485;SDS011;6815;59.336;17.998;2023-05-20T13:55:16;2.88;;;1.23;;
13485;SDS011;6815;59.336;17.998;2023-05-20T13:57:43;1.73;;;1.20;;
13485;SDS011;6815;59.336;17.998;2023-05-20T14:00:22;2.28;;;1.30;;
13485;SDS011;6815;59.336;17.998;2023-05-20T14:02:47;1.30;;;1.20;;
13485;SDS011;6815;59.336;17.998;2023-05-20T14:05:14;1.75;;;1.10;;
13485;SDS011;6815;59.336;17.998;2023-05-20T14:07:41;3.95;;;1.30;;
13485;SDS011;6815;59.336;17.998;2023-05-20T14:10:28;2.17;;;1.00;;
13485;SDS011;6815;59.336;17.998;2023-05-20T14:12:57;2.97;;;0.90;;
13485;SDS011;6815;59.336;17.998;2023-05-20T14:15:26;1.40;;;1.00;;
13485;SDS011;6815;59.336;17.998;2023-05-20T14:17:55;3.17;;;1.20;;
13485;SDS011;6815;59.336;17.998;2023-05-20T14:20:22;2.33;;;1.20;;
13485;SDS011;6815;59.336;17.998;2023-05-20T14:22:48;5.78;;;1.73;;
13485;SDS011;6815;59.336;17.998;2023-05-20T14:25:14;2.83;;;1.10;;
13485;SDS011;6815;59.336;17.998;2023-05-20T14:27:40;2.05;;;1.00;;
13485;SDS011;6815;59.336;17.998;2023-05-20T14:30:05;1.40;;;1.30;;
13485;SDS011;6815;59.336;17.998;2023-05-20T14:32:33;2.33;;;1.20;;
13485;SDS011;6815;59.336;17.998;2023-05-20T14:34:58;2.15;;;1.33;;
13485;SDS011;6815;59.336;17.998;2023-05-20T14:37:24;3.85;;;1.20;;
13485;SDS011;6815;59.336;17.998;2023-05-20T14:39:51;2.70;;;1.25;;
13485;SDS011;6815;59.336;17.998;2023-05-20T14:42:17;3.35;;;1.33;;
13485;SDS011;6815;59.336;17.998;2023-05-20T14:44:43;2.40;;;1.30;;
13485;SDS011;6815;59.336;17.998;2023-05-20T14:47:08;2.67;;;1.25;;
13485;SDS011;6815;59.336;17.998;2023-05-20T14:49:36;3.72;;;1.60;;
13485;SDS011;6815;59.336;17.998;2023-05-20T14:52:03;2.38;;;1.20;;
13485;SDS011;6815;59.336;17.998;2023-05-20T14:54:32;1.65;;;1.27;;
13485;SDS011;6815;59.336;17.998;2023-05-20T14:56:58;2.15;;;1.05;;